createdAt,value
2017-08-18T00:00:05.855Z,55.31
2017-08-18T00:01:05.880Z,54.41
2017-08-18T00:02:05.906Z,54.03
2017-08-18T00:03:05.936Z,54.41
2017-08-18T00:04:05.960Z,54.32
2017-08-18T00:05:05.675Z,55.19
2017-08-18T00:06:06.008Z,54.41
2017-08-18T00:07:06.037Z,55.38
2017-08-18T00:08:06.063Z,54.13
2017-08-18T00:09:06.089Z,55.19
2017-08-18T00:10:05.807Z,54.41
2017-08-18T00:11:06.142Z,54.41
2017-08-18T00:12:05.850Z,55.09
2017-08-18T00:13:06.197Z,54.71
2017-08-18T00:14:06.227Z,54.99
2017-08-18T00:15:05.937Z,54.22
2017-08-18T00:16:06.401Z,54.8
2017-08-18T00:17:05.987Z,54.8
2017-08-18T00:18:06.440Z,54.9
2017-08-18T00:19:06.476Z,54.8
2017-08-18T00:20:06.467Z,54.8
2017-08-18T00:21:06.495Z,55.29
2017-08-18T00:22:06.116Z,55.38
2017-08-18T00:23:06.137Z,54.71
2017-08-18T00:24:06.486Z,55.35
2017-08-18T00:25:06.514Z,55.19
2017-08-18T00:26:06.220Z,54.99
2017-08-18T00:27:06.245Z,55.47
2017-08-18T00:28:06.588Z,55.29
2017-08-18T00:29:06.624Z,55.57
2017-08-18T00:30:06.642Z,55.09
2017-08-18T00:31:06.347Z,55.16
2017-08-18T00:32:06.688Z,55.38
2017-08-18T00:33:06.718Z,55.65
2017-08-18T00:34:06.747Z,55.65
2017-08-18T00:35:06.773Z,55.65
2017-08-18T00:36:06.794Z,55.47
2017-08-18T00:37:06.822Z,55.83
2017-08-18T00:38:06.848Z,55.67
2017-08-18T00:39:06.874Z,56.03
2017-08-18T00:40:06.895Z,56.03
2017-08-18T00:41:06.922Z,56.22
2017-08-18T00:42:06.948Z,55.93
2017-08-18T00:43:06.978Z,55.83
2017-08-18T00:44:07.002Z,55.93
2017-08-18T00:45:06.711Z,55.65
2017-08-18T00:46:07.051Z,56.13
2017-08-18T00:47:07.081Z,56.03
2017-08-18T00:48:07.104Z,55.74
2017-08-18T00:49:07.538Z,56.41
2017-08-18T00:50:07.153Z,55.83
2017-08-18T00:51:07.180Z,56.32
2017-08-18T00:52:06.890Z,55.83
2017-08-18T00:53:07.240Z,56.32
2017-08-18T00:54:06.940Z,56.32
2017-08-18T00:55:07.285Z,55.83
2017-08-18T00:56:07.313Z,56.22
2017-08-18T00:57:07.339Z,56.32
2017-08-18T00:58:07.364Z,55.74
2017-08-18T00:59:07.386Z,56.13
2017-08-18T01:00:07.407Z,56.22
2017-08-18T01:01:07.438Z,55.83
2017-08-18T01:02:07.463Z,56.22
2017-08-18T01:03:07.490Z,56.03
2017-08-18T01:04:07.516Z,56.32
2017-08-18T01:05:07.543Z,56.32
2017-08-18T01:06:07.248Z,56.41
2017-08-18T01:07:07.589Z,55.83
2017-08-18T01:08:07.611Z,56.32
2017-08-18T01:09:07.643Z,56.03
2017-08-18T01:10:07.671Z,55.74
2017-08-18T01:11:07.692Z,56.32
2017-08-18T01:12:07.716Z,56.32
2017-08-18T01:13:07.744Z,56.22
2017-08-18T01:14:07.792Z,56.41
2017-08-18T01:15:07.797Z,56.22
2017-08-18T01:16:07.822Z,55.71
2017-08-18T01:17:07.983Z,55.83
2017-08-18T01:18:07.663Z,56.32
2017-08-18T01:19:07.900Z,56.2
2017-08-18T01:20:07.924Z,56.39
2017-08-18T01:21:07.951Z,56.13
2017-08-18T01:22:07.977Z,55.9
2017-08-18T01:23:08.001Z,56.29
2017-08-18T01:24:08.030Z,55.81
2017-08-18T01:25:07.808Z,56.1
2017-08-18T01:26:08.091Z,55.9
2017-08-18T01:27:07.784Z,56.68
2017-08-18T01:28:08.127Z,56.2
2017-08-18T01:29:07.876Z,56.39
2017-08-18T01:30:08.187Z,56.68
2017-08-18T01:31:08.199Z,56.68
2017-08-18T01:32:08.231Z,56.68
2017-08-18T01:33:08.354Z,56.58
2017-08-18T01:34:08.353Z,56.29
2017-08-18T01:35:08.356Z,56.48
2017-08-18T01:36:08.360Z,56.39
2017-08-18T01:37:08.457Z,56.87
2017-08-18T01:38:08.387Z,56.68
2017-08-18T01:39:08.403Z,56.48
2017-08-18T01:40:08.357Z,56.39
2017-08-18T01:41:08.518Z,56.58
2017-08-18T01:42:08.597Z,56.48
2017-08-18T01:43:08.509Z,56.39
2017-08-18T01:44:08.216Z,56.39
2017-08-18T01:45:08.560Z,56.68
2017-08-18T01:46:08.266Z,56.68
2017-08-18T01:47:08.289Z,56.36
2017-08-18T01:48:08.316Z,56.48
2017-08-18T01:49:08.665Z,56.77
2017-08-18T01:50:08.569Z,56.39
2017-08-18T01:51:08.786Z,56.58
2017-08-18T01:52:08.814Z,56.84
2017-08-18T01:53:08.765Z,57.35
2017-08-18T01:54:08.881Z,56.74
2017-08-18T01:55:08.579Z,56.56
2017-08-18T01:56:08.877Z,57.23
2017-08-18T01:57:08.975Z,57.32
2017-08-18T01:58:08.615Z,57.42
2017-08-18T01:59:08.908Z,57.32
2017-08-18T02:00:08.621Z,56.56
2017-08-18T02:01:08.981Z,57.52
2017-08-18T02:02:08.989Z,56.84
2017-08-18T02:03:09.005Z,57.23
2017-08-18T02:04:08.778Z,56.94
2017-08-18T02:05:09.063Z,57.14
2017-08-18T02:06:08.876Z,57.14
2017-08-18T02:07:08.883Z,56.74
2017-08-18T02:08:09.133Z,57.23
2017-08-18T02:09:09.162Z,57.04
2017-08-18T02:10:09.184Z,57.14
2017-08-18T02:11:09.208Z,57.04
2017-08-18T02:12:08.919Z,57.23
2017-08-18T02:13:09.260Z,57.14
2017-08-18T02:14:09.291Z,57.32
2017-08-18T02:15:09.312Z,57.52
2017-08-18T02:16:09.021Z,57.52
2017-08-18T02:17:09.362Z,57.62
2017-08-18T02:18:09.387Z,57.71
2017-08-18T02:19:09.417Z,57.62
2017-08-18T02:20:09.119Z,57.71
2017-08-18T02:21:09.475Z,57.52
2017-08-18T02:22:09.486Z,57.39
2017-08-18T02:23:09.513Z,57.9
2017-08-18T02:24:09.533Z,57.39
2017-08-18T02:25:09.560Z,57.62
2017-08-18T02:26:09.595Z,57.32
2017-08-18T02:27:09.298Z,57.59
2017-08-18T02:28:09.635Z,57.68
2017-08-18T02:29:09.658Z,57.39
2017-08-18T02:30:09.374Z,57.1
2017-08-18T02:31:09.713Z,57.62
2017-08-18T02:32:09.423Z,56.94
2017-08-18T02:33:09.764Z,57.49
2017-08-18T02:34:09.786Z,57.01
2017-08-18T02:35:09.817Z,57.39
2017-08-18T02:36:09.837Z,57.59
2017-08-18T02:37:09.859Z,57.2
2017-08-18T02:38:09.888Z,57.49
2017-08-18T02:39:09.593Z,57.68
2017-08-18T02:40:09.617Z,57.49
2017-08-18T02:41:09.643Z,57.39
2017-08-18T02:42:09.989Z,57.2
2017-08-18T02:43:10.008Z,57.49
2017-08-18T02:44:09.723Z,57.49
2017-08-18T02:45:10.066Z,57.49
2017-08-18T02:46:10.087Z,57.2
2017-08-18T02:47:09.789Z,57.49
2017-08-18T02:48:10.136Z,57.49
2017-08-18T02:49:10.113Z,57.1
2017-08-18T02:50:10.269Z,57.49
2017-08-18T02:51:10.281Z,57.49
2017-08-18T02:52:10.235Z,57.49
2017-08-18T02:53:10.285Z,57.39
2017-08-18T02:54:10.285Z,57.39
2017-08-18T02:55:10.407Z,57.39
2017-08-18T02:56:10.017Z,57.49
2017-08-18T02:57:10.370Z,57.56
2017-08-18T02:58:10.379Z,57.59
2017-08-18T02:59:10.410Z,57.1
2017-08-18T03:00:10.560Z,57.46
2017-08-18T03:01:10.579Z,57.27
2017-08-18T03:02:10.571Z,57.37
2017-08-18T03:03:10.940Z,57.56
2017-08-18T03:04:10.422Z,57.65
2017-08-18T03:05:10.550Z,57.75
2017-08-18T03:06:10.583Z,57.65
2017-08-18T03:07:10.600Z,57.56
2017-08-18T03:08:10.632Z,57.75
2017-08-18T03:09:10.385Z,57.37
2017-08-18T03:10:10.678Z,57.56
2017-08-18T03:11:10.702Z,57.56
2017-08-18T03:12:10.882Z,57.46
2017-08-18T03:13:10.840Z,57.75
2017-08-18T03:14:10.778Z,57.56
2017-08-18T03:15:10.798Z,57.75
2017-08-18T03:16:10.829Z,57.75
2017-08-18T03:17:11.102Z,57.85
2017-08-18T03:18:11.000Z,57.75
2017-08-18T03:19:10.952Z,57.94
2017-08-18T03:20:10.922Z,57.65
2017-08-18T03:21:10.947Z,57.65
2017-08-18T03:22:10.975Z,57.65
2017-08-18T03:23:10.998Z,57.85
2017-08-18T03:24:11.022Z,57.85
2017-08-18T03:25:11.074Z,57.37
2017-08-18T03:26:11.313Z,57.56
2017-08-18T03:27:11.114Z,57.94
2017-08-18T03:28:11.002Z,57.94
2017-08-18T03:29:11.148Z,57.75
2017-08-18T03:30:11.172Z,58.04
2017-08-18T03:31:11.199Z,57.85
2017-08-18T03:32:11.215Z,58.04
2017-08-18T03:33:11.242Z,57.53
2017-08-18T03:34:11.272Z,58.01
2017-08-18T03:35:11.289Z,57.92
2017-08-18T03:36:10.994Z,58.01
2017-08-18T03:37:11.343Z,58.01
2017-08-18T03:38:11.364Z,57.85
2017-08-18T03:39:11.190Z,57.82
2017-08-18T03:40:11.524Z,57.75
2017-08-18T03:41:11.522Z,57.82
2017-08-18T03:42:11.464Z,58.01
2017-08-18T03:43:11.486Z,58.11
2017-08-18T03:44:11.508Z,57.82
2017-08-18T03:45:11.222Z,57.92
2017-08-18T03:46:11.242Z,58.49
2017-08-18T03:47:11.683Z,58.3
2017-08-18T03:48:11.822Z,58.11
2017-08-18T03:49:11.312Z,58.3
2017-08-18T03:50:11.741Z,58.3
2017-08-18T03:51:11.864Z,58.3
2017-08-18T03:52:11.874Z,58.3
2017-08-18T03:53:11.875Z,58.2
2017-08-18T03:54:11.832Z,58.2
2017-08-18T03:55:11.876Z,58.2
2017-08-18T03:56:11.874Z,58.3
2017-08-18T03:57:11.623Z,58.3
2017-08-18T03:58:11.978Z,58.49
2017-08-18T03:59:11.947Z,58.2
2017-08-18T04:00:11.947Z,58.3
2017-08-18T04:01:11.950Z,58.49
2017-08-18T04:02:11.948Z,58.4
2017-08-18T04:03:11.653Z,58.2
2017-08-18T04:04:11.987Z,58.11
2017-08-18T04:05:12.013Z,58.49
2017-08-18T04:06:12.042Z,58.4
2017-08-18T04:07:12.176Z,58.2
2017-08-18T04:08:12.200Z,58.01
2017-08-18T04:09:12.210Z,58.3
2017-08-18T04:10:12.209Z,58.11
2017-08-18T04:11:11.844Z,58.11
2017-08-18T04:12:12.286Z,58.3
2017-08-18T04:13:12.211Z,58.3
2017-08-18T04:14:12.234Z,58.49
2017-08-18T04:15:12.259Z,58.11
2017-08-18T04:16:12.287Z,58.01
2017-08-18T04:17:12.307Z,58.4
2017-08-18T04:18:12.336Z,58.27
2017-08-18T04:19:12.351Z,58.78
2017-08-18T04:20:12.064Z,58.65
2017-08-18T04:21:12.411Z,58.69
2017-08-18T04:22:12.430Z,58.37
2017-08-18T04:23:12.452Z,58.08
2017-08-18T04:24:12.475Z,58.3
2017-08-18T04:25:12.351Z,58.3
2017-08-18T04:26:12.652Z,58.27
2017-08-18T04:27:12.330Z,58.69
2017-08-18T04:28:12.575Z,59.07
2017-08-18T04:29:12.353Z,58.49
2017-08-18T04:30:12.364Z,58.97
2017-08-18T04:31:12.667Z,58.85
2017-08-18T04:32:12.361Z,58.59
2017-08-18T04:33:12.689Z,58.95
2017-08-18T04:34:12.717Z,58.56
2017-08-18T04:35:12.421Z,58.69
2017-08-18T04:36:12.449Z,59.04
2017-08-18T04:37:12.790Z,59.33
2017-08-18T04:38:12.812Z,59.43
2017-08-18T04:39:12.839Z,59.33
2017-08-18T04:40:12.544Z,59.27
2017-08-18T04:41:12.884Z,59.23
2017-08-18T04:42:12.591Z,59.27
2017-08-18T04:43:12.935Z,59.14
2017-08-18T04:44:12.967Z,59.04
2017-08-18T04:45:12.977Z,59.14
2017-08-18T04:46:13.002Z,59.23
2017-08-18T04:47:13.092Z,59.04
2017-08-18T04:48:13.091Z,59.14
2017-08-18T04:49:13.092Z,58.95
2017-08-18T04:50:12.780Z,59.14
2017-08-18T04:51:13.211Z,59.04
2017-08-18T04:52:12.832Z,59.04
2017-08-18T04:53:13.236Z,59.81
2017-08-18T04:54:13.404Z,58.85
2017-08-18T04:55:13.235Z,58.95
2017-08-18T04:56:13.334Z,59.23
2017-08-18T04:57:13.355Z,59.72
2017-08-18T04:58:13.381Z,59.43
2017-08-18T04:59:13.381Z,59.33
2017-08-18T05:00:13.080Z,59.43
2017-08-18T05:01:13.377Z,59.43
2017-08-18T05:02:13.079Z,59.23
2017-08-18T05:03:13.093Z,59.04
2017-08-18T05:04:13.436Z,59.62
2017-08-18T05:05:13.138Z,59.62
2017-08-18T05:06:13.483Z,59.14
2017-08-18T05:07:13.189Z,59.43
2017-08-18T05:08:13.304Z,59.33
2017-08-18T05:09:13.235Z,59.43
2017-08-18T05:10:13.578Z,59.43
2017-08-18T05:11:13.605Z,59.43
2017-08-18T05:12:13.627Z,59.43
2017-08-18T05:13:13.651Z,59.43
2017-08-18T05:14:13.674Z,59.43
2017-08-18T05:15:13.378Z,59.72
2017-08-18T05:16:13.748Z,60
2017-08-18T05:17:13.752Z,59.91
2017-08-18T05:18:13.773Z,59.23
2017-08-18T05:19:13.793Z,60
2017-08-18T05:20:13.822Z,59.91
2017-08-18T05:21:13.838Z,59.52
2017-08-18T05:22:13.543Z,59.62
2017-08-18T05:23:13.889Z,59.62
2017-08-18T05:24:13.906Z,59.81
2017-08-18T05:25:13.616Z,59.62
2017-08-18T05:26:13.959Z,59.62
2017-08-18T05:27:13.981Z,60.39
2017-08-18T05:28:14.017Z,60.1
2017-08-18T05:29:14.141Z,60.1
2017-08-18T05:30:13.837Z,60
2017-08-18T05:31:14.178Z,59.91
2017-08-18T05:32:14.100Z,59.91
2017-08-18T05:33:13.808Z,60.1
2017-08-18T05:34:14.156Z,60.58
2017-08-18T05:35:14.172Z,60.68
2017-08-18T05:36:14.200Z,60.2
2017-08-18T05:37:14.218Z,60.2
2017-08-18T05:38:14.244Z,60.68
2017-08-18T05:39:14.271Z,60.68
2017-08-18T05:40:14.290Z,60.87
2017-08-18T05:41:14.315Z,60.68
2017-08-18T05:42:14.340Z,60.49
2017-08-18T05:43:14.364Z,60.58
2017-08-18T05:44:14.386Z,60.58
2017-08-18T05:45:14.411Z,60.49
2017-08-18T05:46:14.441Z,60.49
2017-08-18T05:47:14.458Z,60.8
2017-08-18T05:48:14.192Z,60.8
2017-08-18T05:49:14.183Z,60.61
2017-08-18T05:50:14.529Z,60.52
2017-08-18T05:51:14.235Z,60.8
2017-08-18T05:52:14.259Z,60.71
2017-08-18T05:53:14.601Z,60.8
2017-08-18T05:54:14.624Z,61
2017-08-18T05:55:14.651Z,60.71
2017-08-18T05:56:14.672Z,60.61
2017-08-18T05:57:14.696Z,60.71
2017-08-18T05:58:14.716Z,60.71
2017-08-18T05:59:14.758Z,60.9
2017-08-18T06:00:14.767Z,60.52
2017-08-18T06:01:14.792Z,61.19
2017-08-18T06:02:14.815Z,61
2017-08-18T06:03:14.521Z,60.71
2017-08-18T06:04:14.545Z,61
2017-08-18T06:05:14.935Z,61.51
2017-08-18T06:06:14.905Z,61.61
2017-08-18T06:07:14.936Z,61.41
2017-08-18T06:08:14.963Z,61.71
2017-08-18T06:09:14.978Z,61.99
2017-08-18T06:10:15.009Z,61.22
2017-08-18T06:11:15.029Z,61.13
2017-08-18T06:12:15.048Z,61.51
2017-08-18T06:13:15.078Z,61.32
2017-08-18T06:14:15.101Z,61.8
2017-08-18T06:15:15.123Z,61.71
2017-08-18T06:16:15.200Z,61.83
2017-08-18T06:17:15.174Z,61.93
2017-08-18T06:18:15.199Z,61.74
2017-08-18T06:19:15.221Z,61.74
2017-08-18T06:20:15.247Z,61.74
2017-08-18T06:21:15.273Z,61.74
2017-08-18T06:22:15.292Z,61.44
2017-08-18T06:23:14.997Z,61.54
2017-08-18T06:24:15.342Z,61.44
2017-08-18T06:25:15.388Z,61.35
2017-08-18T06:26:15.072Z,61.74
2017-08-18T06:27:15.099Z,62.12
2017-08-18T06:28:15.118Z,61.74
2017-08-18T06:29:15.467Z,62.02
2017-08-18T06:30:15.235Z,62.02
2017-08-18T06:31:15.511Z,62.02
2017-08-18T06:32:15.544Z,62.02
2017-08-18T06:33:15.555Z,61.93
2017-08-18T06:34:15.582Z,61.64
2017-08-18T06:35:15.295Z,61.64
2017-08-18T06:36:15.628Z,61.93
2017-08-18T06:37:15.654Z,61.96
2017-08-18T06:38:15.363Z,61.93
2017-08-18T06:39:15.707Z,62.31
2017-08-18T06:40:15.930Z,62.12
2017-08-18T06:41:15.772Z,62.51
2017-08-18T06:42:15.780Z,62.6
2017-08-18T06:43:15.808Z,62.41
2017-08-18T06:44:15.820Z,62.92
2017-08-18T06:45:15.849Z,63.18
2017-08-18T06:46:15.875Z,63.31
2017-08-18T06:47:15.896Z,63.6
2017-08-18T06:48:15.923Z,63.6
2017-08-18T06:49:15.629Z,63.31
2017-08-18T06:50:15.971Z,63.6
2017-08-18T06:51:16.001Z,63.89
2017-08-18T06:52:16.015Z,64.08
2017-08-18T06:53:16.047Z,63.79
2017-08-18T06:54:16.069Z,64.08
2017-08-18T06:55:15.775Z,64.66
2017-08-18T06:56:16.113Z,64.18
2017-08-18T06:57:16.145Z,64.18
2017-08-18T06:58:16.164Z,64.37
2017-08-18T06:59:16.189Z,65.05
2017-08-18T07:00:16.216Z,64.66
2017-08-18T07:01:16.242Z,64.76
2017-08-18T07:02:16.264Z,65.05
2017-08-18T07:03:16.476Z,65.27
2017-08-18T07:04:16.309Z,65.43
2017-08-18T07:05:16.338Z,65.56
2017-08-18T07:06:16.367Z,65.47
2017-08-18T07:07:16.383Z,65.47
2017-08-18T07:08:16.090Z,65.27
2017-08-18T07:09:16.112Z,65.37
2017-08-18T07:10:16.457Z,65.08
2017-08-18T07:11:16.483Z,65.47
2017-08-18T07:12:16.506Z,65.56
2017-08-18T07:13:16.214Z,65.47
2017-08-18T07:14:16.237Z,64.79
2017-08-18T07:15:16.586Z,65.08
2017-08-18T07:16:16.286Z,65.11
2017-08-18T07:17:16.624Z,65.4
2017-08-18T07:18:16.661Z,65.01
2017-08-18T07:19:16.680Z,64.92
2017-08-18T07:20:16.713Z,65.2
2017-08-18T07:21:16.411Z,64.53
2017-08-18T07:22:16.754Z,64.14
2017-08-18T07:23:16.572Z,63.95
2017-08-18T07:24:16.803Z,64.34
2017-08-18T07:25:16.825Z,64.72
2017-08-18T07:26:16.853Z,64.18
2017-08-18T07:27:16.557Z,63.76
2017-08-18T07:28:16.923Z,63.31
2017-08-18T07:29:16.921Z,63.79
2017-08-18T07:30:17.050Z,63.4
2017-08-18T07:31:16.983Z,63.5
2017-08-18T07:32:16.999Z,63.4
2017-08-18T07:33:17.018Z,63.5
2017-08-18T07:34:17.053Z,63.34
2017-08-18T07:35:17.074Z,63.34
2017-08-18T07:36:17.100Z,62.56
2017-08-18T07:37:17.125Z,63.05
2017-08-18T07:38:17.154Z,62.76
2017-08-18T07:39:17.180Z,62.3
2017-08-18T07:40:17.282Z,62.79
2017-08-18T07:41:17.220Z,62.21
2017-08-18T07:42:17.245Z,62.11
2017-08-18T07:43:17.277Z,62.3
2017-08-18T07:44:17.299Z,62.01
2017-08-18T07:45:17.323Z,62.01
2017-08-18T07:46:17.360Z,61.72
2017-08-18T07:47:17.259Z,61.63
2017-08-18T07:48:17.398Z,61.66
2017-08-18T07:49:17.424Z,61.18
2017-08-18T07:50:17.476Z,61.08
2017-08-18T07:51:17.156Z,60.88
2017-08-18T07:52:17.672Z,61.18
2017-08-18T07:53:17.206Z,61.08
2017-08-18T07:54:17.233Z,61.18
2017-08-18T07:55:17.258Z,60.82
2017-08-18T07:56:17.284Z,60.91
2017-08-18T07:57:17.309Z,60.33
2017-08-18T07:58:17.667Z,60.62
2017-08-18T07:59:17.352Z,60.14
2017-08-18T08:00:17.380Z,60.04
2017-08-18T08:01:17.723Z,59.66
2017-08-18T08:02:17.757Z,59.59
2017-08-18T08:03:17.887Z,59.1
2017-08-18T08:04:17.485Z,58.91
2017-08-18T08:05:17.834Z,59.1
2017-08-18T08:06:17.857Z,58.45
2017-08-18T08:07:17.877Z,58.36
2017-08-18T08:08:17.907Z,57.97
2017-08-18T08:09:17.931Z,58.06
2017-08-18T08:10:17.965Z,57.19
2017-08-18T08:11:17.981Z,56.9
2017-08-18T08:12:18.135Z,56.93
2017-08-18T08:13:18.027Z,56.9
2017-08-18T08:14:18.185Z,56.54
2017-08-18T08:15:18.094Z,56.64
2017-08-18T08:16:17.796Z,56.05
2017-08-18T08:17:18.141Z,56.15
2017-08-18T08:18:18.166Z,56.09
2017-08-18T08:19:18.311Z,55.89
2017-08-18T08:20:18.213Z,55.69
2017-08-18T08:21:18.245Z,56.37
2017-08-18T08:22:18.383Z,55.89
2017-08-18T08:23:18.291Z,55.5
2017-08-18T08:24:18.321Z,54.85
2017-08-18T08:25:18.346Z,54.66
2017-08-18T08:26:18.383Z,55.14
2017-08-18T08:27:18.403Z,54.66
2017-08-18T08:28:18.423Z,54.94
2017-08-18T08:29:18.135Z,54.46
2017-08-18T08:30:18.472Z,54.17
2017-08-18T08:31:18.504Z,54.36
2017-08-18T08:32:18.528Z,54.49
2017-08-18T08:33:18.555Z,53.81
2017-08-18T08:34:18.581Z,54
2017-08-18T08:35:18.606Z,53.91
2017-08-18T08:36:18.331Z,53.61
2017-08-18T08:37:18.661Z,53.54
2017-08-18T08:38:18.695Z,53.32
2017-08-18T08:39:18.712Z,53.35
2017-08-18T08:40:18.739Z,52.67
2017-08-18T08:41:18.769Z,52.28
2017-08-18T08:42:18.790Z,51.89
2017-08-18T08:43:18.504Z,51.79
2017-08-18T08:44:18.528Z,51.31
2017-08-18T08:45:18.557Z,51.6
2017-08-18T08:46:18.584Z,51.01
2017-08-18T08:47:18.811Z,51.31
2017-08-18T08:48:18.959Z,51.04
2017-08-18T08:49:19.025Z,51.23
2017-08-18T08:50:19.112Z,51.31
2017-08-18T08:51:19.037Z,50.85
2017-08-18T08:52:19.065Z,50.56
2017-08-18T08:53:19.086Z,50.46
2017-08-18T08:54:19.127Z,50.36
2017-08-18T08:55:19.145Z,50.07
2017-08-18T08:56:18.854Z,49.97
2017-08-18T08:57:19.207Z,50.16
2017-08-18T08:58:19.226Z,50.09
2017-08-18T08:59:19.256Z,49.99
2017-08-18T09:00:19.281Z,50.19
2017-08-18T09:01:19.313Z,49.61
2017-08-18T09:02:19.346Z,49.71
2017-08-18T09:03:19.047Z,49.32
2017-08-18T09:04:19.400Z,49.22
2017-08-18T09:05:19.097Z,49.02
2017-08-18T09:06:19.446Z,49.22
2017-08-18T09:07:19.470Z,49.02
2017-08-18T09:08:19.533Z,49.12
2017-08-18T09:09:19.413Z,48.93
2017-08-18T09:10:19.554Z,48.83
2017-08-18T09:11:19.585Z,48.83
2017-08-18T09:12:19.612Z,48.63
2017-08-18T09:13:19.325Z,49.22
2017-08-18T09:14:19.357Z,48.75
2017-08-18T09:15:19.691Z,48.56
2017-08-18T09:16:19.403Z,47.98
2017-08-18T09:17:19.637Z,48.27
2017-08-18T09:18:19.777Z,48.17
2017-08-18T09:19:19.911Z,48.07
2017-08-18T09:20:19.515Z,47.59
2017-08-18T09:21:19.860Z,47.88
2017-08-18T09:22:19.888Z,47.78
2017-08-18T09:23:19.600Z,48.07
2017-08-18T09:24:19.625Z,48.07
2017-08-18T09:25:19.652Z,47.78
2017-08-18T09:26:20.007Z,47.52
2017-08-18T09:27:19.734Z,47.49
2017-08-18T09:28:19.742Z,47.13
2017-08-18T09:29:20.344Z,47.03
2017-08-18T09:30:19.794Z,47.03
2017-08-18T09:31:19.820Z,46.73
2017-08-18T09:32:20.169Z,46.83
2017-08-18T09:33:20.258Z,46.54
2017-08-18T09:34:20.226Z,46.44
2017-08-18T09:35:20.255Z,46.34
2017-08-18T09:36:20.283Z,46.25
2017-08-18T09:37:19.991Z,45.95
2017-08-18T09:38:20.344Z,45.86
2017-08-18T09:39:20.370Z,45.98
2017-08-18T09:40:20.397Z,45.86
2017-08-18T09:41:20.428Z,45.86
2017-08-18T09:42:20.134Z,45.88
2017-08-18T09:43:20.481Z,45.88
2017-08-18T09:44:20.190Z,45.98
2017-08-18T09:45:20.538Z,46.08
2017-08-18T09:46:20.245Z,45.88
2017-08-18T09:47:20.276Z,45.78
2017-08-18T09:48:20.303Z,45.49
2017-08-18T09:49:20.650Z,45.59
2017-08-18T09:50:20.365Z,45.68
2017-08-18T09:51:20.706Z,45.88
2017-08-18T09:52:20.834Z,45.68
2017-08-18T09:53:20.768Z,45.68
2017-08-18T09:54:20.477Z,45.68
2017-08-18T09:55:20.823Z,45.98
2017-08-18T09:56:20.852Z,45.61
2017-08-18T09:57:20.560Z,45.49
2017-08-18T09:58:20.599Z,45.22
2017-08-18T09:59:20.617Z,44.93
2017-08-18T10:00:20.645Z,44.93
2017-08-18T10:01:21.017Z,44.93
2017-08-18T10:02:20.705Z,44.73
2017-08-18T10:03:21.054Z,44.73
2017-08-18T10:04:21.081Z,44.64
2017-08-18T10:05:21.115Z,45.03
2017-08-18T10:06:21.142Z,44.93
2017-08-18T10:07:21.168Z,44.64
2017-08-18T10:08:21.196Z,44.44
2017-08-18T10:09:21.221Z,44.73
2017-08-18T10:10:21.253Z,45.03
2017-08-18T10:11:21.470Z,45.03
2017-08-18T10:12:21.341Z,44.93
2017-08-18T10:13:21.023Z,44.76
2017-08-18T10:14:21.372Z,44.76
2017-08-18T10:15:21.401Z,44.27
2017-08-18T10:16:21.113Z,44.46
2017-08-18T10:17:21.455Z,44.17
2017-08-18T10:18:21.485Z,43.98
2017-08-18T10:19:21.200Z,44.07
2017-08-18T10:20:21.545Z,44.07
2017-08-18T10:21:21.576Z,43.98
2017-08-18T10:22:21.602Z,43.88
2017-08-18T10:23:21.629Z,43.98
2017-08-18T10:24:21.786Z,44.07
2017-08-18T10:25:21.820Z,43.59
2017-08-18T10:26:21.724Z,43.78
2017-08-18T10:27:21.763Z,43.71
2017-08-18T10:28:21.468Z,43.78
2017-08-18T10:29:21.807Z,43.78
2017-08-18T10:30:21.855Z,43.49
2017-08-18T10:31:21.866Z,43.98
2017-08-18T10:32:21.581Z,43.9
2017-08-18T10:33:21.921Z,43.88
2017-08-18T10:34:21.956Z,43.41
2017-08-18T10:35:21.985Z,43.51
2017-08-18T10:36:22.012Z,43.49
2017-08-18T10:37:22.050Z,43.51
2017-08-18T10:38:22.076Z,43.51
2017-08-18T10:39:21.787Z,43.99
2017-08-18T10:40:22.135Z,43.99
2017-08-18T10:41:22.164Z,44.09
2017-08-18T10:42:22.192Z,43.9
2017-08-18T10:43:22.220Z,43.8
2017-08-18T10:44:21.930Z,43.8
2017-08-18T10:45:22.278Z,43.8
2017-08-18T10:46:22.413Z,43.9
2017-08-18T10:47:22.343Z,43.61
2017-08-18T10:48:22.057Z,43.41
2017-08-18T10:49:22.399Z,43.51
2017-08-18T10:50:22.445Z,43.14
2017-08-18T10:51:22.459Z,43.22
2017-08-18T10:52:22.504Z,42.85
2017-08-18T10:53:22.512Z,43.63
2017-08-18T10:54:22.548Z,43.14
2017-08-18T10:55:22.582Z,43.04
2017-08-18T10:56:22.287Z,43.04
2017-08-18T10:57:22.640Z,43.14
2017-08-18T10:58:22.353Z,42.85
2017-08-18T10:59:22.699Z,42.94
2017-08-18T11:00:22.729Z,42.94
2017-08-18T11:01:22.564Z,42.85
2017-08-18T11:02:22.471Z,42.68
2017-08-18T11:03:22.814Z,43.07
2017-08-18T11:04:22.850Z,42.87
2017-08-18T11:05:22.882Z,42.68
2017-08-18T11:06:22.912Z,42.87
2017-08-18T11:07:22.621Z,42.77
2017-08-18T11:08:22.964Z,42.68
2017-08-18T11:09:22.996Z,42.48
2017-08-18T11:10:23.026Z,42.77
2017-08-18T11:11:23.062Z,42.68
2017-08-18T11:12:23.087Z,42.58
2017-08-18T11:13:23.121Z,42.58
2017-08-18T11:14:23.150Z,42.48
2017-08-18T11:15:22.857Z,42.38
2017-08-18T11:16:23.228Z,41.62
2017-08-18T11:17:23.247Z,41.6
2017-08-18T11:18:23.280Z,41.72
2017-08-18T11:19:23.354Z,41.72
2017-08-18T11:20:23.345Z,41.82
2017-08-18T11:21:23.361Z,41.82
2017-08-18T11:22:23.391Z,41.91
2017-08-18T11:23:23.420Z,41.91
2017-08-18T11:24:23.451Z,41.82
2017-08-18T11:25:23.485Z,41.91
2017-08-18T11:26:23.515Z,41.89
2017-08-18T11:27:23.543Z,41.91
2017-08-18T11:28:23.568Z,41.91
2017-08-18T11:29:23.605Z,41.72
2017-08-18T11:30:23.644Z,41.91
2017-08-18T11:31:23.749Z,41.82
2017-08-18T11:32:23.693Z,41.82
2017-08-18T11:33:23.726Z,42.4
2017-08-18T11:34:23.758Z,42.69
2017-08-18T11:35:23.787Z,42.68
2017-08-18T11:36:23.821Z,42.48
2017-08-18T11:37:23.848Z,42.77
2017-08-18T11:38:23.558Z,42.68
2017-08-18T11:39:23.915Z,42.79
2017-08-18T11:40:24.055Z,42.5
2017-08-18T11:41:23.963Z,42.5
2017-08-18T11:42:24.001Z,42.6
2017-08-18T11:43:24.033Z,42.5
2017-08-18T11:44:23.748Z,41.72
2017-08-18T11:45:24.108Z,41.82
2017-08-18T11:46:24.120Z,41.62
2017-08-18T11:47:24.153Z,41.72
2017-08-18T11:48:24.184Z,41.62
2017-08-18T11:49:24.215Z,41.13
2017-08-18T11:50:24.241Z,40.55
2017-08-18T11:51:23.955Z,40.45
2017-08-18T11:52:23.993Z,40.25
2017-08-18T11:53:24.017Z,40.35
2017-08-18T11:54:24.166Z,40.14
2017-08-18T11:55:24.394Z,40.04
2017-08-18T11:56:24.111Z,39.75
2017-08-18T11:57:24.455Z,39.75
2017-08-18T11:58:24.503Z,39.94
2017-08-18T11:59:24.517Z,40.04
2017-08-18T12:00:24.547Z,40.14
2017-08-18T12:01:24.579Z,40.33
2017-08-18T12:02:24.612Z,40.14
2017-08-18T12:03:24.640Z,39.96
2017-08-18T12:04:24.674Z,39.76
2017-08-18T12:05:24.810Z,40.06
2017-08-18T12:06:24.728Z,40.06
2017-08-18T12:07:24.769Z,39.76
2017-08-18T12:08:24.797Z,39.86
2017-08-18T12:09:24.823Z,39.96
2017-08-18T12:10:24.851Z,40.06
2017-08-18T12:11:25.106Z,39.67
2017-08-18T12:12:24.597Z,39.76
2017-08-18T12:13:24.953Z,39.86
2017-08-18T12:14:24.982Z,39.47
2017-08-18T12:15:25.015Z,39.67
2017-08-18T12:16:24.721Z,39.47
2017-08-18T12:17:25.075Z,39.76
2017-08-18T12:18:25.105Z,39.76
2017-08-18T12:19:25.272Z,39.65
2017-08-18T12:20:25.284Z,39.76
2017-08-18T12:21:25.192Z,39.96
2017-08-18T12:22:24.904Z,40.04
2017-08-18T12:23:25.254Z,40.04
2017-08-18T12:24:25.284Z,40.16
2017-08-18T12:25:24.994Z,40.33
2017-08-18T12:26:25.347Z,40.43
2017-08-18T12:27:25.375Z,40.33
2017-08-18T12:28:25.401Z,40.14
2017-08-18T12:29:25.444Z,40.63
2017-08-18T12:30:25.471Z,40.23
2017-08-18T12:31:25.498Z,40.04
2017-08-18T12:32:25.212Z,39.37
2017-08-18T12:33:25.561Z,39.67
2017-08-18T12:34:25.593Z,39.65
2017-08-18T12:35:25.626Z,39.86
2017-08-18T12:36:25.656Z,39.67
2017-08-18T12:37:25.683Z,39.86
2017-08-18T12:38:25.715Z,40.06
2017-08-18T12:39:25.810Z,39.86
2017-08-18T12:40:25.497Z,39.76
2017-08-18T12:41:25.823Z,39.76
2017-08-18T12:42:25.836Z,39.76
2017-08-18T12:43:25.873Z,39.76
2017-08-18T12:44:25.912Z,40.25
2017-08-18T12:45:25.933Z,39.67
2017-08-18T12:46:25.964Z,39.76
2017-08-18T12:47:25.993Z,39.67
2017-08-18T12:48:26.026Z,39.67
2017-08-18T12:49:26.050Z,39.76
2017-08-18T12:50:25.771Z,39.96
2017-08-18T12:51:26.116Z,39.76
2017-08-18T12:52:25.829Z,39.76
2017-08-18T12:53:26.181Z,39.76
2017-08-18T12:54:26.207Z,39.76
2017-08-18T12:55:25.920Z,39.39